Terminal Aerodrome Forecast
Issued by NWS Wilmington, OH

Current Version | Previous Version | Text Only | Print | Product List | Glossary Off
Versions: 1 2 3 4 5 6 7 8 9 10 11 12 13 14 15 16 17 18 19

000
FTUS41 KILN 241300 AAA
TAFCMH
TAF AMD
KCMH 241331Z 2414/2512 14007KT P6SM SCT022 OVC150
      TEMPO 2414/2417 BKN022
     FM241700 17012KT P6SM SCT015 OVC050
     FM242100 22017G25KT P6SM -SHRA OVC015
     FM250000 25025G40KT P6SM OVC018
     FM250400 24018G28KT P6SM OVC022=

USA.gov is the U.S. government's official web portal to all federal, state and local government web resources and services.